createdAt,value
2019-03-05T00:00:14.537Z,86.8
2019-03-05T00:01:14.609Z,86.5
2019-03-05T00:02:14.876Z,86.5
2019-03-05T00:03:14.136Z,86.6
2019-03-05T00:04:14.406Z,86.6
2019-03-05T00:05:14.685Z,86.5
2019-03-05T00:06:14.950Z,87.4
2019-03-05T00:07:14.221Z,87.8
2019-03-05T00:08:14.489Z,88.7
2019-03-05T00:09:14.761Z,89.7
2019-03-05T00:10:14.038Z,89.4
2019-03-05T00:11:14.098Z,89.9
2019-03-05T00:12:14.371Z,90.4
2019-03-05T00:13:14.624Z,91.0
2019-03-05T00:14:14.898Z,91.0
2019-03-05T00:15:14.159Z,92.0
2019-03-05T00:16:14.429Z,92.1
2019-03-05T00:17:14.695Z,91.6
2019-03-05T00:18:14.959Z,91.5
2019-03-05T00:19:14.228Z,91.4
2019-03-05T00:20:14.515Z,91.8
2019-03-05T00:21:14.595Z,92.1
2019-03-05T00:22:14.865Z,93.3
2019-03-05T00:23:14.127Z,93.3
2019-03-05T00:24:14.387Z,93.1
2019-03-05T00:25:14.230Z,93.1
2019-03-05T00:26:14.493Z,93.0
2019-03-05T00:27:14.754Z,93.4
2019-03-05T00:28:14.031Z,93.4
2019-03-05T00:29:14.290Z,94.1
2019-03-05T00:30:14.566Z,94.0
2019-03-05T00:31:14.743Z,93.5
2019-03-05T00:32:14.002Z,95.0
2019-03-05T00:33:14.265Z,95.0
2019-03-05T00:34:14.528Z,94.7
2019-03-05T00:35:14.815Z,94.4
2019-03-05T00:36:14.084Z,94.3
2019-03-05T00:37:14.635Z,94.8
2019-03-05T00:38:14.912Z,95.0
2019-03-05T00:39:14.178Z,95.7
2019-03-05T00:40:14.455Z,95.9
2019-03-05T00:41:14.530Z,95.3
2019-03-05T00:42:14.800Z,94.8
2019-03-05T00:43:14.071Z,94.8
2019-03-05T00:44:14.337Z,94.7
2019-03-05T00:45:14.614Z,95.4
2019-03-05T00:46:14.872Z,95.3
2019-03-05T00:47:14.135Z,95.9
2019-03-05T00:48:14.397Z,96.0
2019-03-05T00:49:14.666Z,95.3
2019-03-05T00:50:14.933Z,94.8
2019-03-05T00:51:25.361Z,95.1
2019-03-05T00:52:14.682Z,95.5
2019-03-05T00:53:14.967Z,96.2
2019-03-05T00:54:14.236Z,96.1
2019-03-05T00:55:14.505Z,96.2
2019-03-05T00:56:14.775Z,96.1
2019-03-05T00:57:14.045Z,96.0
2019-03-05T00:58:14.319Z,95.9
2019-03-05T00:59:14.587Z,96.4
2019-03-05T01:00:14.860Z,96.5
2019-03-05T01:01:14.895Z,96.7
2019-03-05T01:02:14.179Z,96.8
2019-03-05T01:03:14.445Z,96.8
2019-03-05T01:04:14.708Z,96.6
2019-03-05T01:05:14.973Z,96.3
2019-03-05T01:06:14.243Z,96.1
2019-03-05T01:07:14.515Z,95.6
2019-03-05T01:08:14.784Z,95.8
2019-03-05T01:09:14.079Z,95.8
2019-03-05T01:10:14.355Z,96.2
2019-03-05T01:11:14.415Z,95.4
2019-03-05T01:12:14.675Z,95.2
2019-03-05T01:13:14.934Z,95.2
2019-03-05T01:14:14.196Z,94.9
2019-03-05T01:15:14.484Z,94.0
2019-03-05T01:16:14.767Z,94.2
2019-03-05T01:17:14.025Z,95.2
2019-03-05T01:18:14.289Z,94.3
2019-03-05T01:19:14.559Z,93.7
2019-03-05T01:20:14.842Z,94.7
2019-03-05T01:21:14.876Z,94.4
2019-03-05T01:22:14.150Z,94.3
2019-03-05T01:23:14.420Z,94.2
2019-03-05T01:24:14.961Z,94.0
2019-03-05T01:25:14.236Z,94.3
2019-03-05T01:26:14.523Z,94.1
2019-03-05T01:27:14.794Z,93.9
2019-03-05T01:28:14.066Z,94.3
2019-03-05T01:29:14.324Z,94.8
2019-03-05T01:30:14.607Z,95.0
2019-03-05T01:31:14.706Z,95.0
2019-03-05T01:32:14.983Z,94.9
2019-03-05T01:33:14.254Z,94.7
2019-03-05T01:34:14.519Z,93.4
2019-03-05T01:35:14.787Z,93.7
2019-03-05T01:36:14.054Z,93.7
2019-03-05T01:37:14.323Z,94.3
2019-03-05T01:38:14.591Z,94.4
2019-03-05T01:39:14.858Z,93.7
2019-03-05T01:40:14.162Z,93.0
2019-03-05T01:41:14.194Z,92.9
2019-03-05T01:42:14.461Z,93.7
2019-03-05T01:43:14.728Z,93.4
2019-03-05T01:44:13.994Z,92.5
2019-03-05T01:45:14.266Z,92.6
2019-03-05T01:46:14.529Z,93.2
2019-03-05T01:47:14.796Z,93.3
2019-03-05T01:48:14.070Z,93.9
2019-03-05T01:49:14.336Z,94.1
2019-03-05T01:50:14.623Z,93.1
2019-03-05T01:51:14.659Z,93.3
2019-03-05T01:52:14.934Z,93.8
2019-03-05T01:53:14.202Z,92.9
2019-03-05T01:54:14.468Z,91.9
2019-03-05T01:55:14.738Z,92.6
2019-03-05T01:56:14.020Z,93.0
2019-03-05T01:57:14.286Z,92.0
2019-03-05T01:58:14.552Z,91.4
2019-03-05T01:59:14.834Z,90.9
2019-03-05T02:00:14.123Z,90.9
2019-03-05T02:01:14.188Z,89.8
2019-03-05T02:02:14.450Z,89.9
2019-03-05T02:03:14.726Z,90.4
2019-03-05T02:04:13.988Z,90.9
2019-03-05T02:05:14.252Z,91.0
2019-03-05T02:06:14.520Z,90.5
2019-03-05T02:07:14.780Z,89.9
2019-03-05T02:08:14.048Z,89.7
2019-03-05T02:09:14.320Z,89.9
2019-03-05T02:10:14.598Z,88.7
2019-03-05T02:11:14.671Z,88.2
2019-03-05T02:12:14.925Z,89.8
2019-03-05T02:13:14.180Z,89.2
2019-03-05T02:14:14.448Z,88.9
2019-03-05T02:15:14.720Z,89.6
2019-03-05T02:16:13.993Z,89.7
2019-03-05T02:17:14.252Z,90.1
2019-03-05T02:18:14.517Z,88.9
2019-03-05T02:19:14.779Z,89.1
2019-03-05T02:20:14.043Z,88.8
2019-03-05T02:21:14.133Z,88.0
2019-03-05T02:22:14.401Z,88.0
2019-03-05T02:23:14.670Z,88.0
2019-03-05T02:24:14.937Z,86.9
2019-03-05T02:25:14.215Z,86.8
2019-03-05T02:26:14.476Z,87.0
2019-03-05T02:27:15.061Z,88.4
2019-03-05T02:28:14.324Z,89.3
2019-03-05T02:29:14.594Z,86.4
2019-03-05T02:30:14.866Z,86.8
2019-03-05T02:31:14.930Z,86.1
2019-03-05T02:32:14.195Z,86.8
2019-03-05T02:33:14.460Z,86.1
2019-03-05T02:34:14.737Z,87.5
2019-03-05T02:35:14.007Z,86.8
2019-03-05T02:36:14.285Z,87.1
2019-03-05T02:37:14.569Z,87.2
2019-03-05T02:38:14.864Z,87.0
2019-03-05T02:39:14.152Z,87.8
2019-03-05T02:40:14.444Z,86.8
2019-03-05T02:41:14.526Z,85.0
2019-03-05T02:42:14.792Z,85.7
2019-03-05T02:43:14.086Z,86.1
2019-03-05T02:44:14.357Z,86.3
2019-03-05T02:45:14.635Z,86.2
2019-03-05T02:46:14.938Z,85.8
2019-03-05T02:47:14.242Z,86.1
2019-03-05T02:48:14.510Z,85.6
2019-03-05T02:49:14.768Z,84.5
2019-03-05T02:50:14.061Z,84.8
2019-03-05T02:51:14.214Z,85.6
2019-03-05T02:52:14.487Z,85.2
2019-03-05T02:53:14.760Z,84.8
2019-03-05T02:54:14.038Z,85.1
2019-03-05T02:55:14.330Z,84.9
2019-03-05T02:56:14.608Z,85.5
2019-03-05T02:57:14.889Z,84.5
2019-03-05T02:58:15.392Z,83.4
2019-03-05T02:59:14.666Z,84.1
2019-03-05T03:00:14.961Z,84.3
2019-03-05T03:01:14.058Z,85.7
2019-03-05T03:02:14.321Z,84.6
2019-03-05T03:03:14.595Z,84.6
2019-03-05T03:04:14.866Z,84.8
2019-03-05T03:05:14.154Z,85.1
2019-03-05T03:06:14.432Z,84.4
2019-03-05T03:07:14.713Z,84.3
2019-03-05T03:08:13.981Z,83.6
2019-03-05T03:09:14.262Z,83.6
2019-03-05T03:10:14.542Z,84.2
2019-03-05T03:11:14.618Z,83.1
2019-03-05T03:12:14.883Z,83.4
2019-03-05T03:13:14.150Z,83.2
2019-03-05T03:14:14.757Z,82.7
2019-03-05T03:15:14.063Z,82.6
2019-03-05T03:16:14.347Z,82.3
2019-03-05T03:17:14.623Z,83.4
2019-03-05T03:18:14.899Z,83.6
2019-03-05T03:19:14.169Z,83.7
2019-03-05T03:20:14.447Z,83.9
2019-03-05T03:21:14.521Z,83.7
2019-03-05T03:22:14.812Z,83.7
2019-03-05T03:23:14.087Z,83.0
2019-03-05T03:24:14.364Z,83.4
2019-03-05T03:25:14.646Z,82.9
2019-03-05T03:26:14.914Z,82.4
2019-03-05T03:27:14.202Z,82.9
2019-03-05T03:28:14.369Z,83.2
2019-03-05T03:29:14.633Z,84.8
2019-03-05T03:30:15.766Z,84.5
2019-03-05T03:31:15.008Z,83.1
2019-03-05T03:32:14.312Z,83.0
2019-03-05T03:33:14.622Z,83.4
2019-03-05T03:34:14.939Z,82.5
2019-03-05T03:35:14.225Z,82.6
2019-03-05T03:36:14.499Z,82.4
2019-03-05T03:37:14.770Z,82.4
2019-03-05T03:38:14.034Z,82.1
2019-03-05T03:39:14.313Z,82.1
2019-03-05T03:40:14.609Z,82.6
2019-03-05T03:41:14.668Z,83.3
2019-03-05T03:42:14.955Z,83.0
2019-03-05T03:43:14.255Z,82.8
2019-03-05T03:44:14.525Z,83.0
2019-03-05T03:45:14.795Z,81.8
2019-03-05T03:46:14.148Z,82.8
2019-03-05T03:47:14.416Z,82.7
2019-03-05T03:48:14.679Z,82.8
2019-03-05T03:49:14.958Z,82.8
2019-03-05T03:50:14.257Z,82.6
2019-03-05T03:51:14.322Z,82.9
2019-03-05T03:52:14.600Z,81.9
2019-03-05T03:53:14.886Z,82.5
2019-03-05T03:54:14.175Z,83.3
2019-03-05T03:55:14.455Z,82.9
2019-03-05T03:56:14.735Z,82.6
2019-03-05T03:57:14.006Z,83.7
2019-03-05T03:58:14.296Z,84.0
2019-03-05T03:59:14.578Z,82.3
2019-03-05T04:00:14.877Z,83.0
2019-03-05T04:01:15.240Z,82.4
2019-03-05T04:02:14.517Z,81.7
2019-03-05T04:03:14.784Z,82.0
2019-03-05T04:04:14.050Z,82.6
2019-03-05T04:05:14.329Z,83.3
2019-03-05T04:06:14.748Z,83.6
2019-03-05T04:07:14.032Z,82.5
2019-03-05T04:08:14.300Z,82.6
2019-03-05T04:09:14.559Z,82.2
2019-03-05T04:10:14.861Z,82.4
2019-03-05T04:11:14.897Z,82.0
2019-03-05T04:12:14.473Z,82.6
2019-03-05T04:13:14.734Z,82.5
2019-03-05T04:14:14.032Z,82.5
2019-03-05T04:15:14.336Z,81.4
2019-03-05T04:16:14.623Z,81.8
2019-03-05T04:17:14.902Z,82.4
2019-03-05T04:18:14.175Z,82.7
2019-03-05T04:19:14.441Z,82.5
2019-03-05T04:20:14.710Z,82.7
2019-03-05T04:21:14.767Z,82.3
2019-03-05T04:22:14.039Z,82.3
2019-03-05T04:23:14.313Z,82.8
2019-03-05T04:24:14.586Z,83.1
2019-03-05T04:25:14.860Z,82.6
2019-03-05T04:26:14.137Z,81.6
2019-03-05T04:27:14.408Z,82.3
2019-03-05T04:28:14.679Z,82.0
2019-03-05T04:29:14.949Z,82.3
2019-03-05T04:30:14.261Z,82.2
2019-03-05T04:31:14.302Z,81.9
2019-03-05T04:32:14.571Z,82.1
2019-03-05T04:33:14.846Z,82.9
2019-03-05T04:34:14.117Z,83.2
2019-03-05T04:35:14.389Z,82.6
2019-03-05T04:36:14.661Z,82.5
2019-03-05T04:37:14.923Z,82.8
2019-03-05T04:38:14.188Z,83.4
2019-03-05T04:39:14.464Z,82.9
2019-03-05T04:40:14.737Z,83.3
2019-03-05T04:41:14.795Z,83.7
2019-03-05T04:42:14.103Z,83.7
2019-03-05T04:43:14.368Z,84.3
2019-03-05T04:44:14.630Z,84.0
2019-03-05T04:45:14.893Z,84.1
2019-03-05T04:46:14.164Z,84.3
2019-03-05T04:47:14.435Z,84.4
2019-03-05T04:48:14.699Z,84.3
2019-03-05T04:49:14.978Z,85.6
2019-03-05T04:50:14.262Z,85.3
2019-03-05T04:51:14.320Z,85.4
2019-03-05T04:52:14.584Z,85.4
2019-03-05T04:53:14.893Z,85.5
2019-03-05T04:54:14.160Z,85.9
2019-03-05T04:55:14.435Z,86.3
2019-03-05T04:56:14.771Z,86.2
2019-03-05T04:57:14.046Z,86.8
2019-03-05T04:58:14.313Z,87.1
2019-03-05T04:59:14.592Z,87.2
2019-03-05T05:00:14.864Z,86.8
2019-03-05T05:01:14.914Z,86.6
2019-03-05T05:02:14.193Z,86.3
2019-03-05T05:03:14.509Z,86.9
2019-03-05T05:04:14.764Z,87.0
2019-03-05T05:05:14.311Z,86.6
2019-03-05T05:06:14.582Z,87.3
2019-03-05T05:07:14.851Z,87.3
2019-03-05T05:08:14.112Z,86.8
2019-03-05T05:09:14.383Z,86.7
2019-03-05T05:10:14.664Z,85.9
2019-03-05T05:11:14.764Z,86.5
2019-03-05T05:12:14.044Z,86.8
2019-03-05T05:13:14.325Z,86.7
2019-03-05T05:14:14.601Z,87.2
2019-03-05T05:15:14.881Z,87.5
2019-03-05T05:16:14.146Z,88.0
2019-03-05T05:17:14.410Z,86.1
2019-03-05T05:18:14.680Z,85.9
2019-03-05T05:19:14.948Z,86.8
2019-03-05T05:20:14.226Z,87.3
2019-03-05T05:21:14.342Z,87.2
2019-03-05T05:22:14.608Z,86.8
2019-03-05T05:23:14.885Z,86.4
2019-03-05T05:24:14.884Z,86.1
2019-03-05T05:25:14.173Z,86.6
2019-03-05T05:26:14.454Z,86.3
2019-03-05T05:27:14.721Z,86.8
2019-03-05T05:28:14.040Z,87.4
2019-03-05T05:29:14.315Z,87.3
2019-03-05T05:30:14.574Z,86.7
2019-03-05T05:31:14.656Z,87.7
2019-03-05T05:32:14.916Z,87.1
2019-03-05T05:33:14.195Z,86.8
2019-03-05T05:34:14.463Z,86.4
2019-03-05T05:35:14.725Z,86.5
2019-03-05T05:36:13.985Z,86.4
2019-03-05T05:37:14.277Z,86.7
2019-03-05T05:38:14.559Z,86.8
2019-03-05T05:39:14.825Z,87.2
2019-03-05T05:40:14.094Z,87.2
2019-03-05T05:41:14.186Z,86.8
2019-03-05T05:42:14.454Z,87.4
2019-03-05T05:43:14.724Z,87.2
2019-03-05T05:44:13.991Z,87.2
2019-03-05T05:45:14.261Z,87.7
2019-03-05T05:46:14.532Z,87.6
2019-03-05T05:47:14.797Z,88.5
2019-03-05T05:48:14.053Z,88.7
2019-03-05T05:49:14.325Z,88.9
2019-03-05T05:50:14.607Z,89.3
2019-03-05T05:51:14.657Z,89.7
2019-03-05T05:52:14.926Z,90.4
2019-03-05T05:53:14.981Z,90.2
2019-03-05T05:54:14.262Z,90.6
2019-03-05T05:55:14.535Z,90.9
2019-03-05T05:56:14.803Z,91.2
2019-03-05T05:57:14.062Z,91.4
2019-03-05T05:58:14.324Z,91.9
2019-03-05T05:59:14.598Z,92.4
2019-03-05T06:00:14.891Z,92.0
2019-03-05T06:01:14.956Z,92.2
2019-03-05T06:02:14.216Z,92.7
2019-03-05T06:03:14.481Z,92.9
2019-03-05T06:04:14.741Z,92.7
2019-03-05T06:05:14.005Z,92.3
2019-03-05T06:06:14.266Z,92.6
2019-03-05T06:07:14.527Z,93.1
2019-03-05T06:08:14.785Z,93.3
2019-03-05T06:09:14.072Z,93.7
2019-03-05T06:10:14.357Z,94.0
2019-03-05T06:11:14.403Z,94.7
2019-03-05T06:12:14.671Z,94.5
2019-03-05T06:13:14.941Z,94.5
2019-03-05T06:14:14.215Z,94.1
2019-03-05T06:15:14.488Z,94.0
2019-03-05T06:16:14.750Z,94.4
2019-03-05T06:17:14.015Z,94.7
2019-03-05T06:18:14.289Z,95.0
2019-03-05T06:19:14.557Z,94.8
2019-03-05T06:20:14.872Z,94.6
2019-03-05T06:21:14.901Z,95.2
2019-03-05T06:22:14.173Z,94.9
2019-03-05T06:23:14.450Z,95.0
2019-03-05T06:24:14.735Z,94.9
2019-03-05T06:25:14.009Z,95.2
2019-03-05T06:26:14.278Z,94.9
2019-03-05T06:27:14.545Z,94.9
2019-03-05T06:28:14.818Z,95.2
2019-03-05T06:29:14.091Z,95.2
2019-03-05T06:30:14.364Z,95.3
2019-03-05T06:31:14.449Z,95.3
2019-03-05T06:32:17.573Z,95.1
2019-03-05T06:33:14.857Z,95.2
2019-03-05T06:34:14.125Z,94.7
2019-03-05T06:35:14.393Z,94.6
2019-03-05T06:36:14.681Z,94.6
2019-03-05T06:37:14.986Z,94.9
2019-03-05T06:38:14.266Z,94.9
2019-03-05T06:39:14.532Z,94.6
2019-03-05T06:40:15.148Z,94.4
2019-03-05T06:41:14.873Z,94.2
2019-03-05T06:42:14.147Z,93.7
2019-03-05T06:43:14.416Z,93.4
2019-03-05T06:44:14.692Z,93.6
2019-03-05T06:45:14.970Z,93.8
2019-03-05T06:46:14.236Z,94.3
2019-03-05T06:47:14.504Z,93.5
2019-03-05T06:48:14.758Z,93.5
2019-03-05T06:49:14.036Z,93.0
2019-03-05T06:50:14.312Z,93.4
2019-03-05T06:51:14.394Z,93.2
2019-03-05T06:52:14.676Z,93.2
2019-03-05T06:53:14.931Z,93.3
2019-03-05T06:54:14.207Z,93.3
2019-03-05T06:55:14.485Z,93.0
2019-03-05T06:56:14.770Z,92.5
2019-03-05T06:57:14.036Z,93.2
2019-03-05T06:58:14.309Z,93.3
2019-03-05T06:59:14.572Z,93.0
2019-03-05T07:00:14.868Z,93.2
2019-03-05T07:01:14.902Z,92.2
2019-03-05T07:02:14.453Z,92.5
2019-03-05T07:03:14.724Z,92.5
2019-03-05T07:04:13.992Z,92.4
2019-03-05T07:05:14.266Z,92.4
2019-03-05T07:06:14.536Z,92.5
2019-03-05T07:07:14.800Z,92.1
2019-03-05T07:08:14.069Z,91.5
2019-03-05T07:09:14.346Z,91.7
2019-03-05T07:10:14.612Z,91.4
2019-03-05T07:11:14.696Z,91.8
2019-03-05T07:12:15.055Z,92.0
2019-03-05T07:13:14.326Z,91.4
2019-03-05T07:14:14.595Z,91.3
2019-03-05T07:15:14.859Z,91.9
2019-03-05T07:16:14.124Z,91.1
2019-03-05T07:17:14.392Z,90.3
2019-03-05T07:18:14.665Z,91.2
2019-03-05T07:19:14.928Z,91.7
2019-03-05T07:20:14.225Z,90.6
2019-03-05T07:21:14.261Z,90.6
2019-03-05T07:22:14.531Z,90.8
2019-03-05T07:23:14.799Z,90.4
2019-03-05T07:24:14.069Z,90.1
2019-03-05T07:25:14.371Z,90.3
2019-03-05T07:26:14.635Z,90.3
2019-03-05T07:27:14.902Z,90.1
2019-03-05T07:28:14.166Z,90.0
2019-03-05T07:29:14.428Z,90.0
2019-03-05T07:30:14.735Z,90.1
2019-03-05T07:31:14.772Z,88.8
2019-03-05T07:32:14.040Z,88.1
2019-03-05T07:33:14.339Z,88.3
2019-03-05T07:34:14.600Z,88.7
2019-03-05T07:35:14.872Z,89.2
2019-03-05T07:36:14.141Z,89.3
2019-03-05T07:37:14.405Z,89.7
2019-03-05T07:38:14.666Z,89.3
2019-03-05T07:39:14.939Z,89.3
2019-03-05T07:40:14.246Z,88.3
2019-03-05T07:41:14.323Z,88.7
2019-03-05T07:42:14.595Z,88.4
2019-03-05T07:43:14.862Z,88.9
2019-03-05T07:44:14.127Z,89.2
2019-03-05T07:45:14.394Z,88.7
2019-03-05T07:46:14.667Z,89.5
2019-03-05T07:47:14.948Z,89.6
2019-03-05T07:48:14.223Z,88.5
2019-03-05T07:49:14.480Z,88.3
2019-03-05T07:50:14.763Z,88.8
2019-03-05T07:51:14.819Z,88.6
2019-03-05T07:52:14.085Z,88.2
2019-03-05T07:53:14.363Z,88.2
2019-03-05T07:54:14.634Z,87.3
2019-03-05T07:55:14.901Z,87.6
2019-03-05T07:56:14.170Z,87.1
2019-03-05T07:57:14.435Z,86.8
2019-03-05T07:58:14.703Z,87.2
2019-03-05T07:59:14.967Z,87.5
2019-03-05T08:00:14.520Z,88.2
2019-03-05T08:01:22.777Z,87.9
2019-03-05T08:02:14.085Z,87.6
2019-03-05T08:03:14.354Z,87.8
2019-03-05T08:04:14.618Z,86.7
2019-03-05T08:05:14.892Z,86.2
2019-03-05T08:06:14.154Z,87.4
2019-03-05T08:07:14.416Z,87.9
2019-03-05T08:08:26.997Z,87.1
2019-03-05T08:09:14.288Z,87.5
2019-03-05T08:10:14.565Z,87.7
2019-03-05T08:11:14.628Z,87.1
2019-03-05T08:12:14.901Z,85.7
2019-03-05T08:13:14.174Z,85.7
2019-03-05T08:14:14.437Z,85.0
2019-03-05T08:15:14.714Z,84.4
2019-03-05T08:16:14.032Z,85.4
2019-03-05T08:17:14.305Z,84.3
2019-03-05T08:18:14.571Z,84.4
2019-03-05T08:19:14.839Z,86.2
2019-03-05T08:20:14.125Z,84.9
2019-03-05T08:21:14.207Z,84.5
2019-03-05T08:22:14.485Z,84.0
2019-03-05T08:23:14.759Z,83.2
2019-03-05T08:24:14.027Z,83.1
2019-03-05T08:25:14.297Z,83.0
2019-03-05T08:26:14.563Z,82.9
2019-03-05T08:27:14.835Z,81.3
2019-03-05T08:28:14.116Z,81.4
2019-03-05T08:29:14.383Z,82.6
2019-03-05T08:30:15.154Z,82.4
2019-03-05T08:31:14.746Z,82.3
2019-03-05T08:32:14.012Z,82.1
2019-03-05T08:33:14.289Z,82.5
2019-03-05T08:34:14.546Z,82.6
2019-03-05T08:35:14.817Z,82.6
2019-03-05T08:36:14.072Z,82.1
2019-03-05T08:37:14.334Z,81.6
2019-03-05T08:38:14.595Z,81.7
2019-03-05T08:39:14.860Z,82.1
2019-03-05T08:40:14.142Z,82.5
2019-03-05T08:41:14.209Z,81.7
2019-03-05T08:42:14.478Z,82.1
2019-03-05T08:43:14.752Z,82.1
2019-03-05T08:44:14.025Z,83.3
2019-03-05T08:45:14.340Z,83.1
2019-03-05T08:46:14.607Z,83.6
2019-03-05T08:47:14.897Z,82.5
2019-03-05T08:48:14.164Z,82.6
2019-03-05T08:49:14.427Z,82.6
2019-03-05T08:50:14.774Z,81.9
2019-03-05T08:51:14.782Z,82.2
2019-03-05T08:52:14.076Z,83.4
2019-03-05T08:53:14.338Z,82.7
2019-03-05T08:54:14.601Z,82.6
2019-03-05T08:55:14.874Z,82.9
2019-03-05T08:56:14.137Z,82.3
2019-03-05T08:57:14.408Z,82.9
2019-03-05T08:58:14.679Z,82.4
2019-03-05T08:59:14.941Z,82.7
2019-03-05T09:00:14.227Z,82.8
2019-03-05T09:01:14.267Z,82.7
2019-03-05T09:02:14.539Z,82.0
2019-03-05T09:03:14.820Z,83.4
2019-03-05T09:04:14.094Z,82.3
2019-03-05T09:05:14.359Z,82.2
2019-03-05T09:06:14.619Z,80.9
2019-03-05T09:07:14.890Z,81.0
2019-03-05T09:08:14.153Z,80.7
2019-03-05T09:09:14.418Z,80.7
2019-03-05T09:10:14.703Z,80.5
2019-03-05T09:11:14.754Z,79.6
2019-03-05T09:12:14.017Z,79.6
2019-03-05T09:13:14.282Z,79.7
2019-03-05T09:14:14.554Z,80.5
2019-03-05T09:15:14.838Z,80.7
2019-03-05T09:16:14.109Z,81.8
2019-03-05T09:17:14.369Z,79.6
2019-03-05T09:18:14.633Z,80.0
2019-03-05T09:19:14.918Z,79.7
2019-03-05T09:20:14.186Z,79.5
2019-03-05T09:21:14.257Z,79.2
2019-03-05T09:22:14.511Z,79.5
2019-03-05T09:23:14.776Z,79.1
2019-03-05T09:24:14.046Z,78.9
2019-03-05T09:25:14.317Z,78.4
2019-03-05T09:26:14.578Z,78.4
2019-03-05T09:27:14.853Z,80.5
2019-03-05T09:28:14.114Z,79.0
2019-03-05T09:29:14.385Z,79.2
2019-03-05T09:30:14.662Z,77.7
2019-03-05T09:31:14.720Z,78.7
2019-03-05T09:32:13.993Z,77.0
2019-03-05T09:33:14.246Z,77.1
2019-03-05T09:34:14.505Z,78.2
2019-03-05T09:35:14.797Z,77.3
2019-03-05T09:36:14.070Z,76.3
2019-03-05T09:37:14.343Z,76.7
2019-03-05T09:38:14.607Z,78.6
2019-03-05T09:39:14.879Z,75.7
2019-03-05T09:40:14.166Z,75.6
2019-03-05T09:41:14.195Z,75.8
2019-03-05T09:42:14.470Z,76.6
2019-03-05T09:43:14.737Z,75.5
2019-03-05T09:44:14.004Z,74.7
2019-03-05T09:45:14.283Z,74.6
2019-03-05T09:46:14.557Z,74.8
2019-03-05T09:47:14.823Z,75.2
2019-03-05T09:48:14.090Z,76.0
2019-03-05T09:49:14.349Z,74.7
2019-03-05T09:50:14.621Z,75.6
2019-03-05T09:51:14.709Z,75.0
2019-03-05T09:52:13.978Z,75.0
2019-03-05T09:53:14.251Z,74.0
2019-03-05T09:54:14.507Z,74.6
2019-03-05T09:55:14.785Z,75.1
2019-03-05T09:56:14.075Z,75.2
2019-03-05T09:57:14.345Z,74.0
2019-03-05T09:58:14.615Z,75.4
2019-03-05T09:59:14.883Z,74.4
2019-03-05T10:00:14.156Z,73.5
2019-03-05T10:01:14.295Z,73.2
2019-03-05T10:02:14.559Z,73.0
2019-03-05T10:03:14.828Z,72.7
2019-03-05T10:04:14.097Z,73.6
2019-03-05T10:05:14.361Z,73.2
2019-03-05T10:06:14.620Z,72.9
2019-03-05T10:07:19.423Z,73.1
2019-03-05T10:08:14.726Z,73.3
2019-03-05T10:09:13.994Z,73.2
2019-03-05T10:10:14.265Z,72.9
2019-03-05T10:11:14.381Z,73.4
2019-03-05T10:12:14.653Z,71.9
2019-03-05T10:13:14.961Z,71.1
2019-03-05T10:14:14.235Z,71.1
2019-03-05T10:15:14.507Z,72.6
2019-03-05T10:16:14.784Z,71.0
2019-03-05T10:17:14.059Z,70.3
2019-03-05T10:18:14.313Z,70.3
2019-03-05T10:19:14.601Z,70.5
2019-03-05T10:20:14.891Z,70.7
2019-03-05T10:21:14.927Z,71.5
2019-03-05T10:22:14.212Z,69.8
2019-03-05T10:23:14.507Z,70.7
2019-03-05T10:24:14.782Z,70.6
2019-03-05T10:25:14.060Z,72.4
2019-03-05T10:26:14.333Z,70.0
2019-03-05T10:27:14.589Z,69.3
2019-03-05T10:28:14.860Z,69.5
2019-03-05T10:29:14.123Z,69.4
2019-03-05T10:30:25.295Z,69.0
2019-03-05T10:31:14.486Z,69.0
2019-03-05T10:32:14.751Z,68.1
2019-03-05T10:33:14.014Z,67.0
2019-03-05T10:34:14.290Z,67.9
2019-03-05T10:35:14.640Z,68.4
2019-03-05T10:36:14.905Z,67.3
2019-03-05T10:37:19.051Z,68.5
2019-03-05T10:38:14.419Z,67.4
2019-03-05T10:39:14.701Z,70.2
2019-03-05T10:40:15.028Z,67.7
2019-03-05T10:41:14.032Z,66.8
2019-03-05T10:42:14.286Z,67.2
2019-03-05T10:43:14.549Z,67.2
2019-03-05T10:44:14.824Z,67.0
2019-03-05T10:45:14.084Z,67.6
2019-03-05T10:46:14.349Z,67.8
2019-03-05T10:47:14.618Z,68.4
2019-03-05T10:48:14.883Z,67.4
2019-03-05T10:49:14.163Z,67.7
2019-03-05T10:50:15.832Z,66.7
2019-03-05T10:51:14.511Z,66.0
2019-03-05T10:52:14.787Z,66.0
2019-03-05T10:53:14.042Z,66.3
2019-03-05T10:54:14.305Z,66.7
2019-03-05T10:55:26.635Z,65.4
2019-03-05T10:56:13.972Z,66.5
2019-03-05T10:57:14.249Z,64.0
2019-03-05T10:58:14.535Z,63.9
2019-03-05T10:59:14.807Z,66.5
2019-03-05T11:00:14.088Z,65.2
2019-03-05T11:01:14.237Z,64.4
2019-03-05T11:02:14.501Z,65.3
2019-03-05T11:03:14.761Z,63.1
2019-03-05T11:04:14.028Z,63.7
2019-03-05T11:05:14.294Z,63.3
2019-03-05T11:06:14.567Z,66.3
2019-03-05T11:07:14.834Z,63.4
2019-03-05T11:08:14.108Z,64.1
2019-03-05T11:09:14.400Z,65.1
2019-03-05T11:10:14.679Z,63.8
2019-03-05T11:11:14.789Z,62.7
2019-03-05T11:12:14.054Z,63.2
2019-03-05T11:13:14.323Z,62.7
2019-03-05T11:14:14.590Z,63.9
2019-03-05T11:15:14.857Z,63.2
2019-03-05T11:16:14.115Z,65.6
2019-03-05T11:17:14.385Z,66.8
2019-03-05T11:18:14.659Z,63.5
2019-03-05T11:19:14.963Z,62.8
2019-03-05T11:20:14.239Z,64.6
2019-03-05T11:21:14.306Z,64.7
2019-03-05T11:22:14.565Z,62.4
2019-03-05T11:23:14.828Z,62.6
2019-03-05T11:24:14.093Z,63.6
2019-03-05T11:25:14.439Z,62.7
2019-03-05T11:26:14.711Z,65.0
2019-03-05T11:27:14.004Z,63.4
2019-03-05T11:28:14.290Z,62.3
2019-03-05T11:29:14.563Z,62.0
2019-03-05T11:30:14.841Z,61.9
2019-03-05T11:31:14.912Z,62.9
2019-03-05T11:32:14.172Z,62.2
2019-03-05T11:33:14.443Z,62.5
2019-03-05T11:34:14.744Z,62.1
2019-03-05T11:35:14.028Z,61.6
2019-03-05T11:36:14.294Z,61.7
2019-03-05T11:37:14.556Z,61.9
2019-03-05T11:38:14.812Z,62.1
2019-03-05T11:39:14.094Z,62.3
2019-03-05T11:40:21.494Z,63.2
2019-03-05T11:41:14.446Z,62.5
2019-03-05T11:42:14.737Z,64.4
2019-03-05T11:43:14.014Z,62.5
2019-03-05T11:44:14.287Z,62.3
2019-03-05T11:45:14.553Z,61.9
2019-03-05T11:46:14.835Z,62.5
2019-03-05T11:47:14.100Z,63.2
2019-03-05T11:48:14.358Z,63.4
2019-03-05T11:49:14.619Z,62.6
2019-03-05T11:50:14.891Z,62.4
2019-03-05T11:51:13.992Z,62.5
2019-03-05T11:52:14.268Z,62.3
2019-03-05T11:53:14.532Z,62.0
2019-03-05T11:54:14.803Z,62.2
2019-03-05T11:55:14.076Z,62.7
2019-03-05T11:56:14.337Z,63.0
2019-03-05T11:57:14.600Z,64.7
2019-03-05T11:58:14.887Z,63.4
2019-03-05T11:59:14.151Z,63.3
2019-03-05T12:00:14.431Z,64.6
2019-03-05T12:01:14.539Z,63.4
2019-03-05T12:02:22.151Z,64.1
2019-03-05T12:03:14.450Z,64.0
2019-03-05T12:04:14.716Z,63.9
2019-03-05T12:05:13.982Z,64.8
2019-03-05T12:06:14.241Z,65.0
2019-03-05T12:07:14.503Z,65.1
2019-03-05T12:08:14.794Z,65.1
2019-03-05T12:09:14.058Z,66.1
2019-03-05T12:10:14.355Z,66.0
2019-03-05T12:11:14.393Z,66.2
2019-03-05T12:12:14.645Z,65.2
2019-03-05T12:13:14.916Z,65.9
2019-03-05T12:14:14.209Z,65.7
2019-03-05T12:15:14.499Z,65.7
2019-03-05T12:16:14.759Z,65.8
2019-03-05T12:17:14.018Z,66.4
2019-03-05T12:18:14.321Z,66.9
2019-03-05T12:19:14.604Z,67.5
2019-03-05T12:20:14.884Z,66.6
2019-03-05T12:21:14.927Z,67.1
2019-03-05T12:22:14.193Z,66.8
2019-03-05T12:23:14.484Z,67.3
2019-03-05T12:24:14.754Z,67.6
2019-03-05T12:25:14.027Z,69.8
2019-03-05T12:26:14.294Z,68.3
2019-03-05T12:27:14.567Z,69.1
2019-03-05T12:28:14.834Z,69.1
2019-03-05T12:29:14.098Z,69.2
2019-03-05T12:30:14.639Z,69.2
2019-03-05T12:31:14.465Z,70.0
2019-03-05T12:32:15.507Z,70.5
2019-03-05T12:33:14.784Z,69.8
2019-03-05T12:34:14.080Z,70.2
2019-03-05T12:35:14.350Z,70.9
2019-03-05T12:36:14.618Z,71.1
2019-03-05T12:37:14.889Z,71.9
2019-03-05T12:38:14.154Z,72.1
2019-03-05T12:39:14.424Z,72.3
2019-03-05T12:40:14.705Z,73.7
2019-03-05T12:41:14.754Z,74.3
2019-03-05T12:42:14.026Z,74.6
2019-03-05T12:43:14.293Z,74.9
2019-03-05T12:44:14.571Z,74.4
2019-03-05T12:45:14.845Z,75.0
2019-03-05T12:46:14.124Z,76.3
2019-03-05T12:47:16.090Z,75.3
2019-03-05T12:48:14.351Z,76.8
2019-03-05T12:49:17.195Z,75.8
2019-03-05T12:50:14.517Z,77.0
2019-03-05T12:51:14.581Z,77.0
2019-03-05T12:52:14.843Z,76.8
2019-03-05T12:53:16.273Z,77.3
2019-03-05T12:54:14.568Z,76.9
2019-03-05T12:55:14.840Z,76.6
2019-03-05T12:56:24.361Z,77.6
2019-03-05T12:57:14.710Z,76.4
2019-03-05T12:58:13.979Z,76.6
2019-03-05T12:59:14.251Z,76.0
2019-03-05T13:00:14.575Z,76.4
2019-03-05T13:01:14.583Z,76.5
2019-03-05T13:02:14.868Z,76.3
2019-03-05T13:03:14.125Z,76.6
2019-03-05T13:04:14.399Z,76.2
2019-03-05T13:05:14.655Z,75.1
2019-03-05T13:06:14.915Z,74.7
2019-03-05T13:07:18.894Z,75.0
2019-03-05T13:08:14.207Z,74.8
2019-03-05T13:09:19.450Z,74.9
2019-03-05T13:10:14.804Z,74.5
2019-03-05T13:11:14.875Z,74.9
2019-03-05T13:12:14.135Z,75.9
2019-03-05T13:13:15.647Z,75.3
2019-03-05T13:14:14.921Z,76.2
2019-03-05T13:15:14.199Z,76.3
2019-03-05T13:16:14.459Z,75.8
2019-03-05T13:17:14.724Z,76.1
2019-03-05T13:18:14.548Z,75.9